sensor_id;sensor_type;location;lat;lon;timestamp;temperature;humidity
26909;DHT22;14477;51.038;4.588;2023-11-19T00:00:43;15.50;99.90
26909;DHT22;14477;51.038;4.588;2023-11-19T00:03:08;15.50;99.90
26909;DHT22;14477;51.038;4.588;2023-11-19T00:05:36;15.50;99.90
26909;DHT22;14477;51.038;4.588;2023-11-19T00:08:02;15.50;99.90
26909;DHT22;14477;51.038;4.588;2023-11-19T00:10:28;15.50;99.90
26909;DHT22;14477;51.038;4.588;2023-11-19T00:12:53;15.50;99.90
26909;DHT22;14477;51.038;4.588;2023-11-19T00:15:19;15.40;99.90
26909;DHT22;14477;51.038;4.588;2023-11-19T00:17:46;15.50;99.90
26909;DHT22;14477;51.038;4.588;2023-11-19T00:20:15;15.50;99.90
26909;DHT22;14477;51.038;4.588;2023-11-19T00:22:42;15.50;99.90
26909;DHT22;14477;51.038;4.588;2023-11-19T00:25:09;15.50;99.90
26909;DHT22;14477;51.038;4.588;2023-11-19T00:27:38;15.50;99.90
26909;DHT22;14477;51.038;4.588;2023-11-19T00:30:07;15.50;99.90
26909;DHT22;14477;51.038;4.588;2023-11-19T00:32:36;15.50;99.90
26909;DHT22;14477;51.038;4.588;2023-11-19T00:35:04;15.50;99.90
26909;DHT22;14477;51.038;4.588;2023-11-19T00:37:31;15.50;99.90
26909;DHT22;14477;51.038;4.588;2023-11-19T00:39:56;15.50;99.90
26909;DHT22;14477;51.038;4.588;2023-11-19T00:42:23;15.50;99.90
26909;DHT22;14477;51.038;4.588;2023-11-19T00:44:50;15.50;99.90
26909;DHT22;14477;51.038;4.588;2023-11-19T00:47:17;15.50;99.90
26909;DHT22;14477;51.038;4.588;2023-11-19T00:49:47;15.60;99.90
26909;DHT22;14477;51.038;4.588;2023-11-19T00:52:16;15.50;99.90
26909;DHT22;14477;51.038;4.588;2023-11-19T00:54:42;15.60;99.90
26909;DHT22;14477;51.038;4.588;2023-11-19T00:57:08;15.60;99.90
26909;DHT22;14477;51.038;4.588;2023-11-19T00:59:34;15.60;99.90
26909;DHT22;14477;51.038;4.588;2023-11-19T01:02:00;15.60;99.90
26909;DHT22;14477;51.038;4.588;2023-11-19T01:04:29;15.60;99.90
26909;DHT22;14477;51.038;4.588;2023-11-19T01:06:55;15.60;99.90
26909;DHT22;14477;51.038;4.588;2023-11-19T01:09:21;15.60;99.90
26909;DHT22;14477;51.038;4.588;2023-11-19T01:11:47;15.60;99.90
26909;DHT22;14477;51.038;4.588;2023-11-19T01:14:12;15.60;99.90
26909;DHT22;14477;51.038;4.588;2023-11-19T01:16:38;15.70;99.90
26909;DHT22;14477;51.038;4.588;2023-11-19T01:19:04;15.70;99.90
26909;DHT22;14477;51.038;4.588;2023-11-19T01:21:30;15.70;99.90
26909;DHT22;14477;51.038;4.588;2023-11-19T01:23:57;15.70;99.90
26909;DHT22;14477;51.038;4.588;2023-11-19T01:26:25;15.70;99.90
26909;DHT22;14477;51.038;4.588;2023-11-19T01:28:50;15.70;99.90
26909;DHT22;14477;51.038;4.588;2023-11-19T01:31:18;15.60;99.90
26909;DHT22;14477;51.038;4.588;2023-11-19T01:33:44;15.70;99.90
26909;DHT22;14477;51.038;4.588;2023-11-19T01:36:13;15.70;99.90
26909;DHT22;14477;51.038;4.588;2023-11-19T01:38:39;15.70;99.90
26909;DHT22;14477;51.038;4.588;2023-11-19T01:41:05;15.70;99.90
26909;DHT22;14477;51.038;4.588;2023-11-19T01:43:35;15.70;99.90
26909;DHT22;14477;51.038;4.588;2023-11-19T01:46:05;15.70;99.90
26909;DHT22;14477;51.038;4.588;2023-11-19T01:48:34;15.70;99.90
26909;DHT22;14477;51.038;4.588;2023-11-19T01:51:02;15.70;99.90
26909;DHT22;14477;51.038;4.588;2023-11-19T01:53:29;15.70;99.90
26909;DHT22;14477;51.038;4.588;2023-11-19T01:55:56;15.60;99.90
26909;DHT22;14477;51.038;4.588;2023-11-19T01:58:24;15.60;99.90
26909;DHT22;14477;51.038;4.588;2023-11-19T02:00:50;15.60;99.90
26909;DHT22;14477;51.038;4.588;2023-11-19T02:03:16;15.60;99.90
26909;DHT22;14477;51.038;4.588;2023-11-19T02:05:42;15.50;99.90
26909;DHT22;14477;51.038;4.588;2023-11-19T02:08:08;15.50;99.90
26909;DHT22;14477;51.038;4.588;2023-11-19T02:10:35;15.50;99.90
26909;DHT22;14477;51.038;4.588;2023-11-19T02:13:01;15.50;99.90
26909;DHT22;14477;51.038;4.588;2023-11-19T02:15:28;15.40;99.90
26909;DHT22;14477;51.038;4.588;2023-11-19T02:17:53;15.40;99.90
26909;DHT22;14477;51.038;4.588;2023-11-19T02:20:20;15.40;99.90
26909;DHT22;14477;51.038;4.588;2023-11-19T02:22:47;15.30;99.90
26909;DHT22;14477;51.038;4.588;2023-11-19T02:25:25;15.30;99.90
26909;DHT22;14477;51.038;4.588;2023-11-19T02:27:58;15.20;99.90
26909;DHT22;14477;51.038;4.588;2023-11-19T02:30:25;15.20;99.90
26909;DHT22;14477;51.038;4.588;2023-11-19T02:32:53;15.20;99.90
26909;DHT22;14477;51.038;4.588;2023-11-19T02:35:19;15.20;99.90
26909;DHT22;14477;51.038;4.588;2023-11-19T02:37:47;15.20;99.90
26909;DHT22;14477;51.038;4.588;2023-11-19T02:40:13;15.20;99.90
26909;DHT22;14477;51.038;4.588;2023-11-19T02:42:39;15.20;99.90
26909;DHT22;14477;51.038;4.588;2023-11-19T02:45:05;15.20;99.90
26909;DHT22;14477;51.038;4.588;2023-11-19T02:47:36;15.20;99.90
26909;DHT22;14477;51.038;4.588;2023-11-19T02:50:02;15.20;99.90
26909;DHT22;14477;51.038;4.588;2023-11-19T02:52:28;15.10;99.90
26909;DHT22;14477;51.038;4.588;2023-11-19T02:54:54;15.10;99.90
26909;DHT22;14477;51.038;4.588;2023-11-19T02:57:21;15.20;99.90
26909;DHT22;14477;51.038;4.588;2023-11-19T02:59:48;15.10;99.90
26909;DHT22;14477;51.038;4.588;2023-11-19T03:02:14;15.10;99.90
26909;DHT22;14477;51.038;4.588;2023-11-19T03:04:41;15.10;99.90
26909;DHT22;14477;51.038;4.588;2023-11-19T03:07:09;15.10;99.90
26909;DHT22;14477;51.038;4.588;2023-11-19T03:09:35;15.10;99.90
26909;DHT22;14477;51.038;4.588;2023-11-19T03:12:01;15.10;99.90
26909;DHT22;14477;51.038;4.588;2023-11-19T03:14:27;15.10;99.90
26909;DHT22;14477;51.038;4.588;2023-11-19T03:16:53;15.10;99.90
26909;DHT22;14477;51.038;4.588;2023-11-19T03:19:19;15.10;99.90
26909;DHT22;14477;51.038;4.588;2023-11-19T03:21:45;15.10;99.90
26909;DHT22;14477;51.038;4.588;2023-11-19T03:24:14;15.00;99.90
26909;DHT22;14477;51.038;4.588;2023-11-19T03:26:40;15.10;99.90
26909;DHT22;14477;51.038;4.588;2023-11-19T03:29:08;15.00;99.90
26909;DHT22;14477;51.038;4.588;2023-11-19T03:31:34;15.00;99.90
26909;DHT22;14477;51.038;4.588;2023-11-19T03:34:00;15.00;99.90
26909;DHT22;14477;51.038;4.588;2023-11-19T03:36:32;14.90;99.90
26909;DHT22;14477;51.038;4.588;2023-11-19T03:38:58;14.90;99.90
26909;DHT22;14477;51.038;4.588;2023-11-19T03:41:24;14.90;99.90
26909;DHT22;14477;51.038;4.588;2023-11-19T03:43:49;14.90;99.90
26909;DHT22;14477;51.038;4.588;2023-11-19T03:46:19;14.90;99.90
26909;DHT22;14477;51.038;4.588;2023-11-19T03:48:49;14.80;99.90
26909;DHT22;14477;51.038;4.588;2023-11-19T03:51:15;14.80;99.90
26909;DHT22;14477;51.038;4.588;2023-11-19T03:53:45;14.80;99.90
26909;DHT22;14477;51.038;4.588;2023-11-19T03:56:11;14.80;99.90
26909;DHT22;14477;51.038;4.588;2023-11-19T03:58:38;14.80;99.90
26909;DHT22;14477;51.038;4.588;2023-11-19T04:01:05;14.80;99.90
26909;DHT22;14477;51.038;4.588;2023-11-19T04:03:31;14.80;99.90
26909;DHT22;14477;51.038;4.588;2023-11-19T04:05:57;14.70;99.90
26909;DHT22;14477;51.038;4.588;2023-11-19T04:08:22;14.70;99.90
26909;DHT22;14477;51.038;4.588;2023-11-19T04:10:48;14.70;99.90
26909;DHT22;14477;51.038;4.588;2023-11-19T04:13:14;14.70;99.90
26909;DHT22;14477;51.038;4.588;2023-11-19T04:15:40;14.70;99.90
26909;DHT22;14477;51.038;4.588;2023-11-19T04:18:06;14.70;99.90
26909;DHT22;14477;51.038;4.588;2023-11-19T04:20:32;14.60;99.90
26909;DHT22;14477;51.038;4.588;2023-11-19T04:22:58;14.60;99.90
26909;DHT22;14477;51.038;4.588;2023-11-19T04:25:26;14.60;99.90
26909;DHT22;14477;51.038;4.588;2023-11-19T04:27:51;14.60;99.90
26909;DHT22;14477;51.038;4.588;2023-11-19T04:30:18;14.60;99.90
26909;DHT22;14477;51.038;4.588;2023-11-19T04:32:44;14.60;99.90
26909;DHT22;14477;51.038;4.588;2023-11-19T04:35:10;14.50;99.90
26909;DHT22;14477;51.038;4.588;2023-11-19T04:37:36;14.50;99.90
26909;DHT22;14477;51.038;4.588;2023-11-19T04:40:03;14.50;99.90
26909;DHT22;14477;51.038;4.588;2023-11-19T04:42:29;14.50;99.90
26909;DHT22;14477;51.038;4.588;2023-11-19T04:44:55;14.50;99.90
26909;DHT22;14477;51.038;4.588;2023-11-19T04:47:21;14.50;99.90
26909;DHT22;14477;51.038;4.588;2023-11-19T04:49:49;14.40;99.90
26909;DHT22;14477;51.038;4.588;2023-11-19T04:52:15;14.40;99.90
26909;DHT22;14477;51.038;4.588;2023-11-19T04:54:45;14.40;99.90
26909;DHT22;14477;51.038;4.588;2023-11-19T04:57:10;14.40;99.90
26909;DHT22;14477;51.038;4.588;2023-11-19T04:59:37;14.40;99.90
26909;DHT22;14477;51.038;4.588;2023-11-19T05:02:03;14.40;99.90
26909;DHT22;14477;51.038;4.588;2023-11-19T05:04:30;14.30;99.90
26909;DHT22;14477;51.038;4.588;2023-11-19T05:06:55;14.30;99.90
26909;DHT22;14477;51.038;4.588;2023-11-19T05:09:21;14.30;99.90
26909;DHT22;14477;51.038;4.588;2023-11-19T05:11:47;14.20;99.90
26909;DHT22;14477;51.038;4.588;2023-11-19T05:14:14;14.20;99.90
26909;DHT22;14477;51.038;4.588;2023-11-19T05:16:43;14.20;99.90
26909;DHT22;14477;51.038;4.588;2023-11-19T05:19:12;14.20;99.90
26909;DHT22;14477;51.038;4.588;2023-11-19T05:21:38;14.10;99.90
26909;DHT22;14477;51.038;4.588;2023-11-19T05:24:04;14.10;99.90
26909;DHT22;14477;51.038;4.588;2023-11-19T05:26:32;14.10;99.90
26909;DHT22;14477;51.038;4.588;2023-11-19T05:28:58;14.10;99.90
26909;DHT22;14477;51.038;4.588;2023-11-19T05:31:24;14.00;99.90
26909;DHT22;14477;51.038;4.588;2023-11-19T05:33:50;14.00;99.90
26909;DHT22;14477;51.038;4.588;2023-11-19T05:36:16;14.00;99.90
26909;DHT22;14477;51.038;4.588;2023-11-19T05:38:42;13.90;99.90
26909;DHT22;14477;51.038;4.588;2023-11-19T05:41:08;13.90;99.90
26909;DHT22;14477;51.038;4.588;2023-11-19T05:43:34;13.90;99.90
26909;DHT22;14477;51.038;4.588;2023-11-19T05:46:00;13.90;99.90
26909;DHT22;14477;51.038;4.588;2023-11-19T05:48:27;13.90;99.90
26909;DHT22;14477;51.038;4.588;2023-11-19T05:50:53;13.90;99.90
26909;DHT22;14477;51.038;4.588;2023-11-19T05:53:19;13.90;99.90
26909;DHT22;14477;51.038;4.588;2023-11-19T05:55:45;13.80;99.90
26909;DHT22;14477;51.038;4.588;2023-11-19T05:58:25;13.80;99.90
26909;DHT22;14477;51.038;4.588;2023-11-19T06:00:52;13.80;99.90
26909;DHT22;14477;51.038;4.588;2023-11-19T06:03:18;13.80;99.90
26909;DHT22;14477;51.038;4.588;2023-11-19T06:05:47;13.80;99.90
26909;DHT22;14477;51.038;4.588;2023-11-19T06:08:14;13.80;99.90
26909;DHT22;14477;51.038;4.588;2023-11-19T06:10:44;13.70;99.90
26909;DHT22;14477;51.038;4.588;2023-11-19T06:13:12;13.70;99.90
26909;DHT22;14477;51.038;4.588;2023-11-19T06:15:41;13.70;99.90
26909;DHT22;14477;51.038;4.588;2023-11-19T06:18:07;13.70;99.90
26909;DHT22;14477;51.038;4.588;2023-11-19T06:20:33;13.70;99.90
26909;DHT22;14477;51.038;4.588;2023-11-19T06:23:00;13.70;99.90
26909;DHT22;14477;51.038;4.588;2023-11-19T06:25:26;13.60;99.90
26909;DHT22;14477;51.038;4.588;2023-11-19T06:27:52;13.70;99.90
26909;DHT22;14477;51.038;4.588;2023-11-19T06:30:18;13.70;99.90
26909;DHT22;14477;51.038;4.588;2023-11-19T06:32:45;13.70;99.90
26909;DHT22;14477;51.038;4.588;2023-11-19T06:35:10;13.70;99.90
26909;DHT22;14477;51.038;4.588;2023-11-19T06:37:38;13.80;99.90
26909;DHT22;14477;51.038;4.588;2023-11-19T06:40:05;13.80;99.90
26909;DHT22;14477;51.038;4.588;2023-11-19T06:42:31;13.80;99.90
26909;DHT22;14477;51.038;4.588;2023-11-19T06:44:57;13.80;99.90
26909;DHT22;14477;51.038;4.588;2023-11-19T06:47:26;13.80;99.90
26909;DHT22;14477;51.038;4.588;2023-11-19T06:49:55;13.30;99.90
26909;DHT22;14477;51.038;4.588;2023-11-19T06:52:21;13.90;99.90
26909;DHT22;14477;51.038;4.588;2023-11-19T06:54:47;13.80;99.90
26909;DHT22;14477;51.038;4.588;2023-11-19T06:57:13;13.80;99.90
26909;DHT22;14477;51.038;4.588;2023-11-19T06:59:39;13.80;99.90
26909;DHT22;14477;51.038;4.588;2023-11-19T07:02:06;13.80;99.90
26909;DHT22;14477;51.038;4.588;2023-11-19T07:04:32;13.80;99.90
26909;DHT22;14477;51.038;4.588;2023-11-19T07:06:59;13.70;99.90
26909;DHT22;14477;51.038;4.588;2023-11-19T07:09:25;13.70;99.90
26909;DHT22;14477;51.038;4.588;2023-11-19T07:11:51;13.70;99.90
26909;DHT22;14477;51.038;4.588;2023-11-19T07:14:18;13.70;99.90
26909;DHT22;14477;51.038;4.588;2023-11-19T07:16:44;13.70;99.90
26909;DHT22;14477;51.038;4.588;2023-11-19T07:19:11;13.70;99.90
26909;DHT22;14477;51.038;4.588;2023-11-19T07:21:41;13.70;99.90
26909;DHT22;14477;51.038;4.588;2023-11-19T07:24:10;13.70;99.90
26909;DHT22;14477;51.038;4.588;2023-11-19T07:26:36;13.70;99.90
26909;DHT22;14477;51.038;4.588;2023-11-19T07:29:05;13.70;99.90
26909;DHT22;14477;51.038;4.588;2023-11-19T07:31:33;13.70;99.90
26909;DHT22;14477;51.038;4.588;2023-11-19T07:33:58;13.70;99.90
26909;DHT22;14477;51.038;4.588;2023-11-19T07:36:24;13.70;99.90
26909;DHT22;14477;51.038;4.588;2023-11-19T07:38:50;13.70;99.90
26909;DHT22;14477;51.038;4.588;2023-11-19T07:41:16;13.70;99.90
26909;DHT22;14477;51.038;4.588;2023-11-19T07:43:45;13.70;99.90
26909;DHT22;14477;51.038;4.588;2023-11-19T07:46:13;13.70;99.90
26909;DHT22;14477;51.038;4.588;2023-11-19T07:48:39;13.80;99.90
26909;DHT22;14477;51.038;4.588;2023-11-19T07:51:06;13.80;99.90
26909;DHT22;14477;51.038;4.588;2023-11-19T07:53:32;13.80;99.90
26909;DHT22;14477;51.038;4.588;2023-11-19T07:55:58;13.80;99.90
26909;DHT22;14477;51.038;4.588;2023-11-19T07:58:27;13.80;99.90
26909;DHT22;14477;51.038;4.588;2023-11-19T08:00:53;13.80;99.90
26909;DHT22;14477;51.038;4.588;2023-11-19T08:03:18;13.90;99.90
26909;DHT22;14477;51.038;4.588;2023-11-19T08:05:45;13.90;99.90
26909;DHT22;14477;51.038;4.588;2023-11-19T08:08:12;13.90;99.90
26909;DHT22;14477;51.038;4.588;2023-11-19T08:10:38;14.00;99.90
26909;DHT22;14477;51.038;4.588;2023-11-19T08:13:05;14.00;99.90
26909;DHT22;14477;51.038;4.588;2023-11-19T08:15:32;14.00;99.90
26909;DHT22;14477;51.038;4.588;2023-11-19T08:17:57;14.10;99.90
26909;DHT22;14477;51.038;4.588;2023-11-19T08:20:23;14.10;99.90
26909;DHT22;14477;51.038;4.588;2023-11-19T08:22:49;14.20;99.90
26909;DHT22;14477;51.038;4.588;2023-11-19T08:25:15;14.20;99.90
26909;DHT22;14477;51.038;4.588;2023-11-19T08:27:41;14.30;99.90
26909;DHT22;14477;51.038;4.588;2023-11-19T08:30:07;14.40;99.90
26909;DHT22;14477;51.038;4.588;2023-11-19T08:32:34;14.40;99.90
26909;DHT22;14477;51.038;4.588;2023-11-19T08:35:00;14.50;99.90
26909;DHT22;14477;51.038;4.588;2023-11-19T08:37:25;14.60;99.90
26909;DHT22;14477;51.038;4.588;2023-11-19T08:39:52;14.60;99.90
26909;DHT22;14477;51.038;4.588;2023-11-19T08:42:18;14.60;99.90
26909;DHT22;14477;51.038;4.588;2023-11-19T08:44:48;14.70;99.90
26909;DHT22;14477;51.038;4.588;2023-11-19T08:47:16;14.70;99.90
26909;DHT22;14477;51.038;4.588;2023-11-19T08:49:44;14.80;99.90
26909;DHT22;14477;51.038;4.588;2023-11-19T08:52:10;14.80;99.90
26909;DHT22;14477;51.038;4.588;2023-11-19T08:54:42;14.80;99.90
26909;DHT22;14477;51.038;4.588;2023-11-19T08:57:08;14.80;99.90
26909;DHT22;14477;51.038;4.588;2023-11-19T08:59:34;14.90;99.90
26909;DHT22;14477;51.038;4.588;2023-11-19T09:02:00;14.90;99.90
26909;DHT22;14477;51.038;4.588;2023-11-19T09:04:26;14.90;99.90
26909;DHT22;14477;51.038;4.588;2023-11-19T09:06:52;15.80;99.90
26909;DHT22;14477;51.038;4.588;2023-11-19T09:09:18;14.90;99.90
26909;DHT22;14477;51.038;4.588;2023-11-19T09:11:44;14.90;99.90
26909;DHT22;14477;51.038;4.588;2023-11-19T09:14:09;14.90;99.90
26909;DHT22;14477;51.038;4.588;2023-11-19T09:16:35;14.90;99.90
26909;DHT22;14477;51.038;4.588;2023-11-19T09:19:01;14.90;99.90
26909;DHT22;14477;51.038;4.588;2023-11-19T09:21:28;15.00;99.90
26909;DHT22;14477;51.038;4.588;2023-11-19T09:23:56;15.20;99.90
26909;DHT22;14477;51.038;4.588;2023-11-19T09:26:22;15.40;99.90
26909;DHT22;14477;51.038;4.588;2023-11-19T09:28:48;15.50;99.90
26909;DHT22;14477;51.038;4.588;2023-11-19T09:31:18;15.80;99.90
26909;DHT22;14477;51.038;4.588;2023-11-19T09:33:44;16.00;99.90
26909;DHT22;14477;51.038;4.588;2023-11-19T09:36:12;16.30;99.90
26909;DHT22;14477;51.038;4.588;2023-11-19T09:38:45;16.60;99.90
26909;DHT22;14477;51.038;4.588;2023-11-19T09:41:11;16.90;99.90
26909;DHT22;14477;51.038;4.588;2023-11-19T09:43:42;17.10;99.90
26909;DHT22;14477;51.038;4.588;2023-11-19T09:46:13;17.40;99.90
26909;DHT22;14477;51.038;4.588;2023-11-19T09:48:39;17.60;99.90
26909;DHT22;14477;51.038;4.588;2023-11-19T09:51:09;17.90;99.90
26909;DHT22;14477;51.038;4.588;2023-11-19T09:53:36;18.00;99.90
26909;DHT22;14477;51.038;4.588;2023-11-19T09:56:03;18.20;99.90
26909;DHT22;14477;51.038;4.588;2023-11-19T09:58:30;18.30;99.90
26909;DHT22;14477;51.038;4.588;2023-11-19T10:00:59;18.50;99.90
26909;DHT22;14477;51.038;4.588;2023-11-19T10:03:27;18.60;99.90
26909;DHT22;14477;51.038;4.588;2023-11-19T10:05:55;18.60;99.90
26909;DHT22;14477;51.038;4.588;2023-11-19T10:08:22;18.40;99.90
26909;DHT22;14477;51.038;4.588;2023-11-19T10:10:48;19.30;99.90
26909;DHT22;14477;51.038;4.588;2023-11-19T10:13:14;18.00;99.90
26909;DHT22;14477;51.038;4.588;2023-11-19T10:15:40;17.80;99.90
26909;DHT22;14477;51.038;4.588;2023-11-19T10:18:07;17.50;99.90
26909;DHT22;14477;51.038;4.588;2023-11-19T10:20:41;17.30;99.90
26909;DHT22;14477;51.038;4.588;2023-11-19T10:23:07;17.00;99.90
26909;DHT22;14477;51.038;4.588;2023-11-19T10:25:33;16.90;99.90
26909;DHT22;14477;51.038;4.588;2023-11-19T10:27:59;16.80;99.90
26909;DHT22;14477;51.038;4.588;2023-11-19T10:30:30;16.90;99.90
26909;DHT22;14477;51.038;4.588;2023-11-19T10:33:10;17.00;99.90
26909;DHT22;14477;51.038;4.588;2023-11-19T10:35:57;17.20;99.90
26909;DHT22;14477;51.038;4.588;2023-11-19T10:38:23;17.20;99.90
26909;DHT22;14477;51.038;4.588;2023-11-19T10:40:51;17.30;99.90
26909;DHT22;14477;51.038;4.588;2023-11-19T10:43:17;17.20;99.90
26909;DHT22;14477;51.038;4.588;2023-11-19T10:45:43;17.10;99.90
26909;DHT22;14477;51.038;4.588;2023-11-19T10:48:09;17.00;99.90
26909;DHT22;14477;51.038;4.588;2023-11-19T10:50:37;16.90;99.90
26909;DHT22;14477;51.038;4.588;2023-11-19T10:53:04;16.70;99.90
26909;DHT22;14477;51.038;4.588;2023-11-19T10:55:35;16.60;99.90
26909;DHT22;14477;51.038;4.588;2023-11-19T10:58:03;15.90;99.90
26909;DHT22;14477;51.038;4.588;2023-11-19T11:00:56;16.30;99.90
26909;DHT22;14477;51.038;4.588;2023-11-19T11:03:25;16.20;99.90
26909;DHT22;14477;51.038;4.588;2023-11-19T11:05:52;16.10;99.90
26909;DHT22;14477;51.038;4.588;2023-11-19T11:08:19;16.20;99.90
26909;DHT22;14477;51.038;4.588;2023-11-19T11:10:52;16.10;99.90
26909;DHT22;14477;51.038;4.588;2023-11-19T11:13:19;16.10;99.90
26909;DHT22;14477;51.038;4.588;2023-11-19T11:15:45;16.10;99.90
26909;DHT22;14477;51.038;4.588;2023-11-19T11:18:13;16.00;99.90
26909;DHT22;14477;51.038;4.588;2023-11-19T11:20:40;16.00;99.90
26909;DHT22;14477;51.038;4.588;2023-11-19T11:29:05;16.00;99.90
26909;DHT22;14477;51.038;4.588;2023-11-19T11:31:48;16.00;99.90
26909;DHT22;14477;51.038;4.588;2023-11-19T11:34:28;16.00;99.90
26909;DHT22;14477;51.038;4.588;2023-11-19T11:39:34;16.30;99.90
26909;DHT22;14477;51.038;4.588;2023-11-19T11:50:12;17.10;99.90
26909;DHT22;14477;51.038;4.588;2023-11-19T11:58:00;18.10;99.90
26909;DHT22;14477;51.038;4.588;2023-11-19T12:03:02;18.40;99.90
26909;DHT22;14477;51.038;4.588;2023-11-19T12:05:28;18.50;99.90
26909;DHT22;14477;51.038;4.588;2023-11-19T12:08:03;18.50;99.90
26909;DHT22;14477;51.038;4.588;2023-11-19T12:10:51;18.50;99.90
26909;DHT22;14477;51.038;4.588;2023-11-19T12:13:17;18.40;99.90
26909;DHT22;14477;51.038;4.588;2023-11-19T12:18:27;17.90;99.90
26909;DHT22;14477;51.038;4.588;2023-11-19T12:20:53;17.60;99.90
26909;DHT22;14477;51.038;4.588;2023-11-19T12:23:19;17.40;99.90
26909;DHT22;14477;51.038;4.588;2023-11-19T12:25:46;16.70;99.90
26909;DHT22;14477;51.038;4.588;2023-11-19T12:28:12;16.80;99.90
26909;DHT22;14477;51.038;4.588;2023-11-19T12:30:39;16.60;99.90
26909;DHT22;14477;51.038;4.588;2023-11-19T12:33:08;16.40;99.90
26909;DHT22;14477;51.038;4.588;2023-11-19T12:35:45;16.10;99.90
26909;DHT22;14477;51.038;4.588;2023-11-19T12:38:21;16.00;99.90
26909;DHT22;14477;51.038;4.588;2023-11-19T12:40:47;15.80;99.90
26909;DHT22;14477;51.038;4.588;2023-11-19T12:43:27;15.70;99.90
26909;DHT22;14477;51.038;4.588;2023-11-19T12:45:53;15.70;99.90
26909;DHT22;14477;51.038;4.588;2023-11-19T12:48:19;15.50;99.90
26909;DHT22;14477;51.038;4.588;2023-11-19T12:50:56;15.50;99.90
26909;DHT22;14477;51.038;4.588;2023-11-19T12:53:23;15.40;99.90
26909;DHT22;14477;51.038;4.588;2023-11-19T12:55:50;15.40;99.90
26909;DHT22;14477;51.038;4.588;2023-11-19T12:58:33;15.40;99.90
26909;DHT22;14477;51.038;4.588;2023-11-19T13:01:00;15.50;99.90
26909;DHT22;14477;51.038;4.588;2023-11-19T13:03:36;15.70;99.90
26909;DHT22;14477;51.038;4.588;2023-11-19T13:06:07;15.70;99.90
26909;DHT22;14477;51.038;4.588;2023-11-19T13:09:03;15.80;99.90
26909;DHT22;14477;51.038;4.588;2023-11-19T13:11:33;15.90;99.90
26909;DHT22;14477;51.038;4.588;2023-11-19T13:14:04;15.90;99.90
26909;DHT22;14477;51.038;4.588;2023-11-19T13:16:30;15.90;99.90
26909;DHT22;14477;51.038;4.588;2023-11-19T13:18:56;15.80;99.90
26909;DHT22;14477;51.038;4.588;2023-11-19T13:21:23;15.80;99.90
26909;DHT22;14477;51.038;4.588;2023-11-19T13:23:49;15.70;99.90
26909;DHT22;14477;51.038;4.588;2023-11-19T13:26:15;15.60;99.90
26909;DHT22;14477;51.038;4.588;2023-11-19T13:28:41;15.60;99.90
26909;DHT22;14477;51.038;4.588;2023-11-19T13:31:07;15.40;99.90
26909;DHT22;14477;51.038;4.588;2023-11-19T13:33:33;15.30;99.90
26909;DHT22;14477;51.038;4.588;2023-11-19T13:35:59;15.30;99.90
26909;DHT22;14477;51.038;4.588;2023-11-19T13:38:33;15.20;99.90
26909;DHT22;14477;51.038;4.588;2023-11-19T13:41:00;15.10;99.90
26909;DHT22;14477;51.038;4.588;2023-11-19T13:43:26;15.10;99.90
26909;DHT22;14477;51.038;4.588;2023-11-19T13:45:54;15.00;99.90
26909;DHT22;14477;51.038;4.588;2023-11-19T13:48:20;15.00;99.90
26909;DHT22;14477;51.038;4.588;2023-11-19T13:50:46;15.00;99.90
26909;DHT22;14477;51.038;4.588;2023-11-19T13:53:12;15.00;99.90
26909;DHT22;14477;51.038;4.588;2023-11-19T13:55:38;15.10;99.90
26909;DHT22;14477;51.038;4.588;2023-11-19T13:58:04;15.20;99.90
26909;DHT22;14477;51.038;4.588;2023-11-19T14:00:30;15.30;99.90
26909;DHT22;14477;51.038;4.588;2023-11-19T14:02:56;15.30;99.90
26909;DHT22;14477;51.038;4.588;2023-11-19T14:05:21;15.40;99.90
26909;DHT22;14477;51.038;4.588;2023-11-19T14:07:48;15.40;99.90
26909;DHT22;14477;51.038;4.588;2023-11-19T14:10:15;15.40;99.90
26909;DHT22;14477;51.038;4.588;2023-11-19T14:12:41;15.40;99.90
26909;DHT22;14477;51.038;4.588;2023-11-19T14:15:08;15.30;99.90
26909;DHT22;14477;51.038;4.588;2023-11-19T14:17:38;15.30;99.90
26909;DHT22;14477;51.038;4.588;2023-11-19T14:20:04;15.30;99.90
26909;DHT22;14477;51.038;4.588;2023-11-19T14:22:39;15.30;99.90
26909;DHT22;14477;51.038;4.588;2023-11-19T14:25:06;15.20;99.90
26909;DHT22;14477;51.038;4.588;2023-11-19T14:27:39;15.20;99.90
26909;DHT22;14477;51.038;4.588;2023-11-19T14:30:06;15.20;99.90
26909;DHT22;14477;51.038;4.588;2023-11-19T14:32:32;15.10;99.90
26909;DHT22;14477;51.038;4.588;2023-11-19T14:34:58;15.10;99.90
26909;DHT22;14477;51.038;4.588;2023-11-19T14:37:24;15.10;99.90
26909;DHT22;14477;51.038;4.588;2023-11-19T14:39:49;15.00;99.90
26909;DHT22;14477;51.038;4.588;2023-11-19T14:42:18;15.00;99.90
26909;DHT22;14477;51.038;4.588;2023-11-19T14:44:43;14.90;99.90
26909;DHT22;14477;51.038;4.588;2023-11-19T14:47:10;14.80;99.90
26909;DHT22;14477;51.038;4.588;2023-11-19T14:49:36;14.70;99.90
26909;DHT22;14477;51.038;4.588;2023-11-19T14:52:03;14.70;99.90
26909;DHT22;14477;51.038;4.588;2023-11-19T14:54:29;14.60;99.90
26909;DHT22;14477;51.038;4.588;2023-11-19T14:56:55;14.60;99.90
26909;DHT22;14477;51.038;4.588;2023-11-19T14:59:20;14.50;99.90
26909;DHT22;14477;51.038;4.588;2023-11-19T15:01:46;14.50;99.90
26909;DHT22;14477;51.038;4.588;2023-11-19T15:04:12;14.50;99.90
26909;DHT22;14477;51.038;4.588;2023-11-19T15:06:38;14.40;99.90
26909;DHT22;14477;51.038;4.588;2023-11-19T15:09:04;14.40;99.90
26909;DHT22;14477;51.038;4.588;2023-11-19T15:11:30;14.30;99.90
26909;DHT22;14477;51.038;4.588;2023-11-19T15:13:56;14.20;99.90
26909;DHT22;14477;51.038;4.588;2023-11-19T15:16:22;14.20;99.90
26909;DHT22;14477;51.038;4.588;2023-11-19T15:18:57;14.20;99.90
26909;DHT22;14477;51.038;4.588;2023-11-19T15:21:25;14.10;99.90
26909;DHT22;14477;51.038;4.588;2023-11-19T15:23:52;14.10;99.90
26909;DHT22;14477;51.038;4.588;2023-11-19T15:26:18;14.10;99.90
26909;DHT22;14477;51.038;4.588;2023-11-19T15:28:44;14.10;99.90
26909;DHT22;14477;51.038;4.588;2023-11-19T15:31:10;14.10;99.90
26909;DHT22;14477;51.038;4.588;2023-11-19T15:33:36;14.10;99.90
26909;DHT22;14477;51.038;4.588;2023-11-19T15:36:01;14.10;99.90
26909;DHT22;14477;51.038;4.588;2023-11-19T15:38:33;14.10;99.90
26909;DHT22;14477;51.038;4.588;2023-11-19T15:40:59;14.20;99.90
26909;DHT22;14477;51.038;4.588;2023-11-19T15:43:25;14.20;99.90
26909;DHT22;14477;51.038;4.588;2023-11-19T15:45:51;14.20;99.90
26909;DHT22;14477;51.038;4.588;2023-11-19T15:48:16;14.20;99.90
26909;DHT22;14477;51.038;4.588;2023-11-19T15:50:43;14.20;99.90
26909;DHT22;14477;51.038;4.588;2023-11-19T15:53:10;14.20;99.90
26909;DHT22;14477;51.038;4.588;2023-11-19T15:55:36;14.20;99.90
26909;DHT22;14477;51.038;4.588;2023-11-19T15:58:02;14.20;99.90